This is the latest recevied weather packets stored in our database for station/object NK7E-2. If no packets are shown the sender has not sent any weather packets the latest 10 day(s).
| Time | Temp. | Humidity | Pressure | Rain* | Wind** | Luminosity | Snow |
|---|---|---|---|---|---|---|---|
| 1788350416 | 23.89° C | 59% | 1028.7 hPa | 0 mm | - | - | - |
| 1788349816 | 23.33° C | 62% | 1028.7 hPa | 0 mm | - | - | - |
| 1788349216 | 23.89° C | 62% | 1028.9 hPa | 0 mm | - | - | - |
| 1788348616 | 23.33° C | 62% | 1028.7 hPa | 0 mm | - | - | - |
| 1788348016 | 22.78° C | 64% | 1028.6 hPa | 0 mm | - | - | - |
| 1788347416 | 22.78° C | 65% | 1028.4 hPa | 0 mm | - | - | - |
| 1788346816 | 22.78° C | 65% | 1028.6 hPa | 0 mm | - | - | - |
| 1788346216 | 22.78° C | 64% | 1028.6 hPa | 0 mm | - | - | - |
| 1788345616 | 22.78° C | 65% | 1028.5 hPa | 0 mm | - | - | - |
| 1788345016 | 23.33° C | 64% | 1028.6 hPa | 0 mm | - | - | - |
| 1788344416 | 22.78° C | 65% | 1028.4 hPa | 0 mm | - | - | - |
| 1788343816 | 22.78° C | 65% | 1028.2 hPa | 0 mm | - | - | - |
| 1788343216 | 23.33° C | 64% | 1028.4 hPa | 0 mm | - | - | - |
| 1788342616 | 23.33° C | 63% | 1028.4 hPa | 0 mm | - | - | - |
| 1788342016 | 23.89° C | 62% | 1028.4 hPa | 0 mm | - | - | - |
| 1788341416 | 23.89° C | 61% | 1028.3 hPa | 0 mm | - | - | - |
| 1788340816 | 23.89° C | 59% | 1028.2 hPa | 0 mm | - | - | - |
| 1788340216 | 24.44° C | 60% | 1028.4 hPa | 0 mm | - | - | - |
| 1788339616 | 24.44° C | 58% | 1028.3 hPa | 0 mm | - | - | - |
| 1788339016 | 25° C | 55% | 1028.5 hPa | 0 mm | - | - | - |
| 1788338416 | 25.56° C | 55% | 1028.6 hPa | 0 mm | - | - | - |
| 1788337816 | 25.56° C | 54% | 1028.6 hPa | 0 mm | - | - | - |
| 1788337216 | 25° C | 55% | 1028.4 hPa | 0 mm | - | - | - |
| 1788336616 | 25° C | 54% | 1028.4 hPa | 0 mm | - | - | - |
| 1788336016 | 24.44° C | 57% | 1028.2 hPa | 0 mm | - | - | - |
* Rain latest hour (hover to see other rain measurements)
** Current wind speed in m/s (hover to see current wind gust speed)